Time;durP1;ratioP1;P1;durP2;ratioP2;P2;SDS_P1;SDS_P2;PMS_P1;PMS_P2;Temp;Humidity;BMP_temperature;BMP_pressure;BME280_temperature;BME280_humidity;BME280_pressure;Samples;Min_cycle;Max_cycle;Signal;HPM_P1;HPM_P2
2022/06/29 00:00:09;;;;;;;8.80;2.80;;;16.50;99.90;;;;;;5092425;28;20086;-76
2022/06/29 00:02:35;;;;;;;6.85;2.70;;;16.50;99.90;;;;;;5092430;28;20051;-75
2022/06/29 00:05:03;;;;;;;9.23;3.40;;;16.50;99.90;;;;;;5074126;28;20048;-75
2022/06/29 00:07:29;;;;;;;5.80;2.75;;;16.50;99.90;;;;;;5092542;28;20044;-75
2022/06/29 00:09:54;;;;;;;5.90;2.97;;;16.50;99.90;;;;;;5092335;28;20460;-74
2022/06/29 00:12:20;;;;;;;7.75;2.72;;;16.60;99.90;;;;;;5073945;28;20051;-75
2022/06/29 00:14:45;;;;;;;13.50;3.90;;;16.50;99.90;;;;;;5091972;28;20063;-75
2022/06/29 00:17:12;;;;;;;7.20;3.17;;;16.50;99.90;;;;;;5091994;28;20387;-74
2022/06/29 00:19:39;;;;;;;8.02;4.38;;;16.50;99.90;;;;;;5090477;28;20044;-75
2022/06/29 00:22:05;;;;;;;10.77;3.22;;;16.50;99.90;;;;;;5091935;28;20048;-75
2022/06/29 00:24:31;;;;;;;7.20;3.40;;;16.40;99.90;;;;;;5092232;28;20044;-75
2022/06/29 00:26:57;;;;;;;6.78;3.40;;;16.40;99.90;;;;;;5092203;28;20055;-75
2022/06/29 00:29:23;;;;;;;6.60;3.20;;;16.50;99.90;;;;;;5091719;28;20407;-75
2022/06/29 00:31:49;;;;;;;6.60;3.22;;;16.40;99.90;;;;;;5091803;28;20047;-74
2022/06/29 00:34:14;;;;;;;7.85;3.60;;;16.50;99.90;;;;;;5091947;28;20380;-75
2022/06/29 00:36:40;;;;;;;8.10;3.30;;;16.40;99.90;;;;;;5091574;28;20528;-74
2022/06/29 00:39:06;;;;;;;6.95;3.42;;;16.40;99.90;;;;;;5073475;28;20063;-75
2022/06/29 00:41:40;;;;;;;8.82;3.22;;;16.10;99.90;;;;;;5092127;28;20046;-74
2022/06/29 00:44:09;;;;;;;9.63;3.67;;;16.30;99.90;;;;;;5091647;28;20044;-74
2022/06/29 00:46:40;;;;;;;7.80;3.05;;;16.30;99.90;;;;;;5091579;28;20109;-74
2022/06/29 00:49:05;;;;;;;6.18;3.05;;;16.20;99.90;;;;;;5091331;28;20484;-75
2022/06/29 00:51:33;;;;;;;5.53;3.13;;;16.20;99.90;;;;;;5091785;28;20047;-75
2022/06/29 00:54:02;;;;;;;6.93;3.22;;;16.20;99.90;;;;;;5091536;28;20093;-75
2022/06/29 00:56:28;;;;;;;8.70;3.70;;;16.20;99.90;;;;;;5091407;28;20177;-75
2022/06/29 00:58:58;;;;;;;13.25;3.67;;;16.10;99.90;;;;;;5091369;28;20056;-75
2022/06/29 01:01:25;;;;;;;12.95;3.65;;;16.00;99.90;;;;;;5090299;28;20460;-74
2022/06/29 01:03:51;;;;;;;10.10;3.65;;;16.10;99.90;;;;;;5090976;28;20089;-75
2022/06/29 01:06:17;;;;;;;9.23;3.72;;;16.10;99.90;;;;;;5091066;28;20078;-75
2022/06/29 01:08:42;;;;;;;8.07;3.72;;;16.10;99.90;;;;;;5091364;28;20052;-75
2022/06/29 01:11:08;;;;;;;5.88;3.10;;;16.00;99.90;;;;;;5091263;28;20039;-75
2022/06/29 01:13:33;;;;;;;7.30;3.70;;;16.20;99.90;;;;;;5091272;28;20055;-75
2022/06/29 01:15:59;;;;;;;7.68;3.40;;;15.90;99.90;;;;;;5090553;28;20394;-75
2022/06/29 01:18:25;;;;;;;7.68;3.65;;;15.90;99.90;;;;;;5090899;28;20192;-75
2022/06/29 01:20:50;;;;;;;9.88;3.63;;;15.90;99.90;;;;;;5072949;28;20395;-75
2022/06/29 01:23:16;;;;;;;4.57;3.28;;;15.80;99.90;;;;;;5091123;28;20040;-74
2022/06/29 01:25:42;;;;;;;6.20;3.67;;;15.90;99.90;;;;;;5090996;28;20073;-74
2022/06/29 01:28:07;;;;;;;6.47;3.55;;;15.80;99.90;;;;;;5072609;28;20044;-75
2022/06/29 01:30:33;;;;;;;8.18;3.85;;;15.80;99.90;;;;;;5090763;28;20040;-75
2022/06/29 01:32:58;;;;;;;12.30;4.22;;;15.90;99.90;;;;;;5090826;28;20036;-74
2022/06/29 01:35:24;;;;;;;6.68;3.90;;;15.90;99.90;;;;;;5072974;28;20387;-76
2022/06/29 01:37:50;;;;;;;8.63;4.20;;;15.90;99.90;;;;;;5090856;28;20059;-74
2022/06/29 01:40:15;;;;;;;9.43;3.90;;;15.90;99.90;;;;;;5091013;28;20043;-75
2022/06/29 01:42:41;;;;;;;9.48;4.72;;;15.90;99.90;;;;;;5072714;28;20403;-75
2022/06/29 01:45:07;;;;;;;6.63;4.22;;;16.00;99.90;;;;;;5090667;28;20134;-76
2022/06/29 01:47:33;;;;;;;8.75;4.45;;;15.90;99.90;;;;;;5072183;28;20487;-75
2022/06/29 01:49:59;;;;;;;8.45;4.13;;;16.00;99.90;;;;;;5072355;28;20093;-75
2022/06/29 01:52:25;;;;;;;8.18;3.90;;;16.00;99.90;;;;;;5090580;28;20501;-75
2022/06/29 01:54:50;;;;;;;8.18;4.30;;;16.00;99.90;;;;;;5090666;28;20395;-75
2022/06/29 01:57:16;;;;;;;8.18;4.10;;;16.00;99.90;;;;;;5090471;28;20403;-76
2022/06/29 01:59:42;;;;;;;8.43;4.00;;;16.00;99.90;;;;;;5090537;28;20433;-75
2022/06/29 02:02:08;;;;;;;9.68;4.65;;;16.00;99.90;;;;;;5090290;28;20040;-75
2022/06/29 02:04:33;;;;;;;9.68;4.68;;;16.00;99.90;;;;;;5090638;28;20056;-74
2022/06/29 02:06:59;;;;;;;9.98;4.20;;;16.30;99.90;;;;;;5090300;28;20044;-74
2022/06/29 02:09:25;;;;;;;5.80;3.83;;;16.10;99.90;;;;;;5090543;28;20066;-74
2022/06/29 02:11:51;;;;;;;10.98;4.20;;;16.10;99.90;;;;;;5090325;28;20216;-75
2022/06/29 02:14:16;;;;;;;6.22;4.03;;;16.10;99.90;;;;;;5093213;28;20062;-75
2022/06/29 02:16:42;;;;;;;7.57;3.97;;;16.10;99.90;;;;;;5094368;28;20048;-75
2022/06/29 02:19:08;;;;;;;8.73;4.38;;;16.20;99.90;;;;;;5075964;28;20063;-75
2022/06/29 02:21:33;;;;;;;9.10;4.53;;;16.10;99.90;;;;;;5094323;28;20043;-74
2022/06/29 02:23:59;;;;;;;6.80;4.10;;;16.10;99.90;;;;;;5094441;28;20036;-73
2022/06/29 02:26:25;;;;;;;8.65;3.97;;;16.10;99.90;;;;;;5075767;28;20044;-73
2022/06/29 02:28:50;;;;;;;10.95;4.28;;;16.10;99.90;;;;;;5058693;28;20411;-74
2022/06/29 02:36:45;;;;;;;8.98;3.78;;;16.10;99.90;;;;;;5093954;28;20083;-75
2022/06/29 02:39:11;;;;;;;7.47;4.13;;;16.20;99.90;;;;;;5075540;28;20557;-76
2022/06/29 02:41:36;;;;;;;5.63;3.85;;;16.20;99.90;;;;;;5094090;28;20048;-75
2022/06/29 02:44:02;;;;;;;7.20;4.15;;;16.20;99.90;;;;;;5093993;28;20084;-75
2022/06/29 02:46:28;;;;;;;7.82;3.80;;;16.10;99.90;;;;;;5093958;28;20067;-76
2022/06/29 02:48:53;;;;;;;7.15;4.10;;;16.10;99.90;;;;;;5093588;28;20036;-75
2022/06/29 02:51:19;;;;;;;8.90;4.03;;;16.10;99.90;;;;;;5093756;28;20043;-75
2022/06/29 02:53:45;;;;;;;8.55;4.30;;;16.20;99.90;;;;;;5094048;28;20048;-75
2022/06/29 02:56:10;;;;;;;4.65;3.85;;;16.10;99.90;;;;;;5094004;28;20399;-75
2022/06/29 02:58:36;;;;;;;7.32;3.92;;;16.10;99.90;;;;;;5075746;28;20052;-75
2022/06/29 03:01:02;;;;;;;6.95;4.55;;;16.10;99.90;;;;;;5075959;28;20040;-75
2022/06/29 03:03:27;;;;;;;8.73;4.07;;;16.00;99.90;;;;;;5093482;28;20051;-75
2022/06/29 03:05:53;;;;;;;9.13;4.22;;;16.00;99.90;;;;;;5093539;28;20514;-75
2022/06/29 03:08:19;;;;;;;9.00;4.10;;;16.00;99.90;;;;;;5075422;28;20452;-75
2022/06/29 03:10:44;;;;;;;7.75;4.22;;;16.00;99.90;;;;;;5093409;28;20048;-75
2022/06/29 03:13:10;;;;;;;9.40;4.57;;;16.00;99.90;;;;;;5093445;28;20044;-75
2022/06/29 03:15:36;;;;;;;7.88;4.72;;;15.90;99.90;;;;;;5093492;28;20434;-76
2022/06/29 03:18:01;;;;;;;7.68;4.72;;;15.90;99.90;;;;;;5075038;28;20131;-75
2022/06/29 03:20:28;;;;;;;9.05;4.22;;;15.90;99.90;;;;;;5092662;28;20062;-75
2022/06/29 03:22:53;;;;;;;11.00;4.65;;;15.90;99.90;;;;;;5093366;28;20054;-75
2022/06/29 03:25:19;;;;;;;10.25;4.50;;;15.80;99.90;;;;;;5092557;28;20044;-74
2022/06/29 03:27:45;;;;;;;7.70;4.32;;;15.80;99.90;;;;;;5074795;28;20044;-75
2022/06/29 03:30:11;;;;;;;9.00;4.80;;;15.80;99.90;;;;;;5093031;28;20101;-75
2022/06/29 03:32:37;;;;;;;7.18;4.35;;;15.80;99.90;;;;;;5074789;28;20059;-74
2022/06/29 03:35:03;;;;;;;6.78;4.70;;;15.80;99.90;;;;;;5092385;28;20036;-75
2022/06/29 03:37:29;;;;;;;8.80;3.95;;;15.80;99.90;;;;;;5092708;28;20086;-75
2022/06/29 03:39:55;;;;;;;8.70;4.68;;;15.70;99.90;;;;;;5074648;28;20061;-75
2022/06/29 03:42:21;;;;;;;6.25;4.18;;;15.80;99.90;;;;;;5092915;28;20051;-74
2022/06/29 03:44:47;;;;;;;9.88;4.30;;;15.70;99.90;;;;;;5092790;28;20055;-74
2022/06/29 03:47:12;;;;;;;4.85;4.10;;;15.70;99.90;;;;;;5074705;28;20063;-75
2022/06/29 03:49:38;;;;;;;6.47;4.43;;;15.70;99.90;;;;;;5092596;28;20043;-76
2022/06/29 03:52:04;;;;;;;5.13;3.88;;;15.70;99.90;;;;;;5092512;28;20082;-76
2022/06/29 03:54:31;;;;;;;7.70;4.40;;;15.70;99.90;;;;;;5093113;28;20070;-75
2022/06/29 03:56:57;;;;;;;6.28;4.30;;;15.90;99.90;;;;;;5092767;28;20384;-75
2022/06/29 03:59:23;;;;;;;7.25;4.10;;;15.60;99.90;;;;;;5092534;28;20073;-76
2022/06/29 04:01:48;;;;;;;8.95;4.90;;;15.80;99.90;;;;;;5092393;28;20085;-75
2022/06/29 04:04:14;;;;;;;7.95;4.57;;;15.60;99.90;;;;;;5074008;28;20087;-75
2022/06/29 04:06:40;;;;;;;13.10;4.60;;;15.70;99.90;;;;;;5073720;28;20040;-76
2022/06/29 04:09:05;;;;;;;7.50;4.47;;;15.70;99.90;;;;;;5090991;28;20047;-75
2022/06/29 04:11:51;;;;;;;7.85;4.60;;;15.60;99.90;;;;;;5092375;28;20047;-75
2022/06/29 04:14:19;;;;;;;10.73;4.60;;;15.70;99.90;;;;;;5092211;28;20130;-76
2022/06/29 04:16:45;;;;;;;7.47;4.53;;;15.60;99.90;;;;;;5074191;28;20487;-76
2022/06/29 04:19:11;;;;;;;9.80;4.57;;;15.90;99.90;;;;;;5090747;28;20098;-76
2022/06/29 04:21:37;;;;;;;6.95;4.15;;;15.70;99.90;;;;;;5092019;28;20126;-74
2022/06/29 04:24:03;;;;;;;8.68;4.75;;;15.70;99.90;;;;;;5092247;28;20066;-75
2022/06/29 04:26:29;;;;;;;7.10;4.30;;;15.70;99.90;;;;;;5092029;28;20056;-75
2022/06/29 04:28:54;;;;;;;7.80;4.35;;;15.80;99.90;;;;;;5091952;28;20048;-75
2022/06/29 04:31:20;;;;;;;9.85;4.50;;;15.80;99.90;;;;;;5072652;28;20052;-75
2022/06/29 04:33:46;;;;;;;9.25;4.53;;;15.90;99.90;;;;;;5091706;28;20040;-75
2022/06/29 04:36:11;;;;;;;10.60;5.22;;;15.90;99.90;;;;;;5090942;28;20052;-76
2022/06/29 04:38:37;;;;;;;10.43;4.60;;;15.90;99.90;;;;;;5091036;28;20044;-75
2022/06/29 04:41:05;;;;;;;9.45;5.28;;;16.00;99.90;;;;;;5073748;28;20048;-75
2022/06/29 04:43:31;;;;;;;11.07;4.70;;;16.00;99.90;;;;;;5091495;28;20032;-75
2022/06/29 04:48:42;;;;;;;8.23;4.70;;;16.10;99.90;;;;;;5091372;28;20055;-76
2022/06/29 04:51:08;;;;;;;8.65;4.88;;;16.20;99.90;;;;;;5091779;28;20036;-74
2022/06/29 04:53:34;;;;;;;7.60;5.00;;;16.10;99.90;;;;;;5091369;28;20047;-76
2022/06/29 04:56:00;;;;;;;8.05;4.18;;;16.20;99.90;;;;;;5091544;28;20697;-76
2022/06/29 04:58:26;;;;;;;9.75;4.97;;;16.20;99.90;;;;;;5091232;28;20490;-76
2022/06/29 05:00:52;;;;;;;11.05;5.57;;;16.40;99.90;;;;;;5091257;28;20036;-75
2022/06/29 05:03:18;;;;;;;7.10;4.68;;;16.30;99.90;;;;;;5073033;28;20093;-75
2022/06/29 05:05:44;;;;;;;7.93;4.47;;;16.30;99.90;;;;;;5091070;28;20077;-75
2022/06/29 05:08:10;;;;;;;10.60;5.93;;;16.40;99.90;;;;;;5091009;28;20047;-76
2022/06/29 05:10:35;;;;;;;7.75;4.72;;;16.30;99.90;;;;;;5091452;28;20051;-75
2022/06/29 05:13:01;;;;;;;8.48;5.03;;;16.40;99.90;;;;;;5091108;28;20040;-75
2022/06/29 05:15:27;;;;;;;10.45;4.93;;;16.60;99.90;;;;;;5091146;28;20515;-74
2022/06/29 05:17:53;;;;;;;7.93;4.85;;;16.50;99.90;;;;;;5091177;28;20403;-75
2022/06/29 05:20:20;;;;;;;8.48;4.60;;;16.60;99.90;;;;;;5091219;28;20055;-74
2022/06/29 05:22:46;;;;;;;6.90;4.45;;;16.70;99.90;;;;;;5091034;28;20052;-75
2022/06/29 05:25:12;;;;;;;9.32;4.72;;;16.70;99.90;;;;;;5091431;28;20145;-76
2022/06/29 05:27:38;;;;;;;7.60;5.07;;;16.80;99.90;;;;;;5091045;28;20047;-76
2022/06/29 05:30:04;;;;;;;7.72;4.82;;;16.70;99.90;;;;;;5090945;28;20121;-75
2022/06/29 05:32:30;;;;;;;7.70;4.25;;;16.80;99.90;;;;;;5090822;28;20043;-75
2022/06/29 05:34:56;;;;;;;9.60;4.75;;;16.80;99.90;;;;;;5090632;28;20052;-76
2022/06/29 05:37:27;;;;;;;8.05;4.72;;;16.90;99.90;;;;;;5090719;28;20403;-76
2022/06/29 05:39:53;;;;;;;7.25;4.90;;;16.90;99.90;;;;;;5089207;28;20127;-75
2022/06/29 05:42:18;;;;;;;7.43;5.03;;;16.90;99.90;;;;;;5090472;28;20127;-74
2022/06/29 05:44:44;;;;;;;10.55;4.55;;;17.00;99.90;;;;;;5072495;28;20058;-75
2022/06/29 05:47:10;;;;;;;7.93;4.95;;;16.90;99.90;;;;;;5072557;28;20074;-75
2022/06/29 05:49:36;;;;;;;6.97;4.43;;;17.10;99.90;;;;;;5090267;28;20048;-77
2022/06/29 05:52:03;;;;;;;6.82;4.35;;;17.20;99.90;;;;;;5090837;28;20105;-76
2022/06/29 05:54:29;;;;;;;7.60;4.53;;;17.30;99.90;;;;;;5090329;28;20048;-74
2022/06/29 05:56:54;;;;;;;7.72;4.30;;;17.40;99.90;;;;;;5090653;28;20062;-75
2022/06/29 05:59:20;;;;;;;9.20;3.97;;;17.50;99.90;;;;;;5072640;28;20480;-75
2022/06/29 06:01:46;;;;;;;6.53;4.20;;;17.70;99.90;;;;;;5090409;28;20038;-76
2022/06/29 06:04:11;;;;;;;6.60;4.20;;;17.80;99.90;;;;;;5072295;28;20048;-74
2022/06/29 06:06:37;;;;;;;4.95;3.72;;;17.90;99.90;;;;;;5090507;28;20044;-75
2022/06/29 06:09:03;;;;;;;10.38;3.70;;;18.00;99.90;;;;;;5090483;28;20142;-74
2022/06/29 06:11:29;;;;;;;9.02;3.50;;;18.10;99.90;;;;;;5090640;28;20372;-75
2022/06/29 06:13:55;;;;;;;4.28;3.00;;;18.20;99.90;;;;;;5090556;28;20044;-76
2022/06/29 06:16:21;;;;;;;8.98;3.25;;;18.40;99.90;;;;;;5090378;28;20047;-74
2022/06/29 06:18:47;;;;;;;6.68;3.35;;;18.40;99.90;;;;;;5090244;28;20505;-75
2022/06/29 06:21:13;;;;;;;5.72;3.00;;;18.70;99.90;;;;;;5090302;28;20032;-75
2022/06/29 06:23:39;;;;;;;5.45;2.47;;;18.70;99.90;;;;;;5072791;28;20483;-75
2022/06/29 06:26:05;;;;;;;6.43;3.10;;;18.80;99.90;;;;;;5090411;28;20047;-75
2022/06/29 06:28:31;;;;;;;7.80;3.35;;;18.90;99.90;;;;;;5090533;28;20044;-74
2022/06/29 06:30:57;;;;;;;5.85;2.90;;;19.10;99.90;;;;;;5090357;28;20452;-76
2022/06/29 06:33:22;;;;;;;4.93;2.90;;;19.20;99.90;;;;;;5090374;28;20044;-75
2022/06/29 06:35:49;;;;;;;5.30;3.10;;;19.40;99.90;;;;;;5090120;28;20056;-75
2022/06/29 06:38:15;;;;;;;6.20;2.95;;;19.50;99.90;;;;;;5089837;28;20120;-75
2022/06/29 06:43:25;;;;;;;7.75;2.95;;;19.90;99.90;;;;;;5090198;28;20052;-77
2022/06/29 06:45:51;;;;;;;6.65;2.80;;;20.10;99.90;;;;;;5072058;28;20121;-76
2022/06/29 06:48:17;;;;;;;7.38;2.58;;;20.30;99.90;;;;;;5089950;28;20044;-75
2022/06/29 06:50:45;;;;;;;3.92;2.40;;;20.50;99.90;;;;;;5089992;28;20075;-77
2022/06/29 06:53:11;;;;;;;6.18;2.53;;;20.80;99.90;;;;;;5089777;28;20484;-75
2022/06/29 06:55:37;;;;;;;5.35;2.08;;;21.00;99.90;;;;;;5089925;28;20048;-76
2022/06/29 06:58:03;;;;;;;4.70;2.17;;;21.30;99.90;;;;;;5089635;28;20056;-75
2022/06/29 07:00:29;;;;;;;4.85;1.90;;;21.50;99.90;;;;;;5073069;28;20055;-75
2022/06/29 07:02:55;;;;;;;6.40;1.75;;;21.70;99.90;;;;;;5093371;28;20051;-76
2022/06/29 07:05:21;;;;;;;2.92;1.50;;;21.90;99.90;;;;;;5093278;28;20044;-76
2022/06/29 07:07:47;;;;;;;4.22;1.70;;;22.10;99.90;;;;;;5075158;28;20055;-76
2022/06/29 07:10:12;;;;;;;3.90;1.40;;;22.30;99.90;;;;;;5093607;28;20505;-75
2022/06/29 07:12:38;;;;;;;4.32;1.77;;;22.50;99.90;;;;;;5093303;28;20047;-75
2022/06/29 07:15:05;;;;;;;7.32;1.65;;;22.80;99.90;;;;;;5093410;28;20044;-76
2022/06/29 07:17:31;;;;;;;5.65;1.58;;;23.00;99.90;;;;;;5093311;28;20044;-76
2022/06/29 07:19:57;;;;;;;5.47;1.45;;;23.20;99.90;;;;;;5092928;28;20052;-76
2022/06/29 07:22:23;;;;;;;4.88;1.30;;;23.30;99.90;;;;;;5093437;28;20042;-76
2022/06/29 07:24:49;;;;;;;6.10;1.35;;;23.50;99.90;;;;;;5093508;28;20414;-76
2022/06/29 07:27:15;;;;;;;4.05;1.33;;;23.70;99.90;;;;;;5093268;28;20036;-77
2022/06/29 07:29:41;;;;;;;5.32;1.33;;;23.80;99.90;;;;;;5093360;28;20468;-77
2022/06/29 07:32:07;;;;;;;6.60;1.60;;;24.10;99.90;;;;;;5093073;28;20040;-77
2022/06/29 07:34:33;;;;;;;4.70;1.30;;;24.20;99.90;;;;;;5092724;28;20493;-78
2022/06/29 07:36:59;;;;;;;6.47;1.30;;;24.20;99.90;;;;;;5093157;28;20036;-79
2022/06/29 07:39:25;;;;;;;6.82;1.17;;;24.50;99.90;;;;;;5092674;28;20487;-78
2022/06/29 07:41:57;;;;;;;3.97;1.30;;;24.50;99.90;;;;;;5092906;28;20048;-77
2022/06/29 07:44:23;;;;;;;2.42;1.05;;;24.70;99.90;;;;;;5092682;28;20101;-78
2022/06/29 07:46:49;;;;;;;5.40;1.00;;;24.80;99.90;;;;;;5074598;28;20446;-78
2022/06/29 07:49:17;;;;;;;3.35;0.90;;;24.90;99.90;;;;;;5092430;28;20047;-78
2022/06/29 07:51:43;;;;;;;6.25;1.00;;;24.90;99.90;;;;;;5092853;28;20038;-80
2022/06/29 07:54:09;;;;;;;5.25;1.45;;;25.10;99.90;;;;;;5092853;28;20044;-79
2022/06/29 07:56:37;;;;;;;2.97;1.23;;;25.30;99.90;;;;;;5092666;28;20444;-79
2022/06/29 07:59:03;;;;;;;4.78;1.20;;;25.40;99.90;;;;;;5092177;28;20438;-78
2022/06/29 08:01:30;;;;;;;4.82;0.90;;;25.50;99.90;;;;;;5074267;28;20089;-78
2022/06/29 08:03:55;;;;;;;7.00;1.10;;;25.60;99.50;;;;;;5092276;28;20083;-79
2022/06/29 08:06:22;;;;;;;6.53;1.15;;;25.60;99.60;;;;;;5092211;28;20075;-78
2022/06/29 08:08:48;;;;;;;4.97;1.20;;;25.70;99.00;;;;;;5092413;28;20090;-77
2022/06/29 08:11:14;;;;;;;3.85;0.90;;;25.80;98.60;;;;;;5091889;28;20488;-80
2022/06/29 08:13:40;;;;;;;6.00;1.08;;;25.80;98.70;;;;;;5091841;28;20119;-81
2022/06/29 08:16:11;;;;;;;2.25;1.27;;;25.90;98.70;;;;;;5092104;28;20087;-78
2022/06/29 08:18:37;;;;;;;9.13;1.00;;;25.90;98.40;;;;;;5073047;28;20138;-76
2022/06/29 08:21:12;;;;;;;3.40;1.10;;;26.00;98.20;;;;;;5090924;28;20064;-78
2022/06/29 08:23:49;;;;;;;5.68;1.05;;;26.00;98.00;;;;;;5074201;28;20039;-85
2022/06/29 08:26:22;;;;;;;3.00;1.33;;;26.20;98.00;;;;;;5073992;28;20123;-83
2022/06/29 08:28:56;;;;;;;4.10;0.90;;;26.10;97.40;;;;;;5073438;28;20096;-81
2022/06/29 08:31:22;;;;;;;;;;;26.30;97.10;;;;;;5092037;28;20055;-80
2022/06/29 08:33:47;;;;;;;6.55;1.02;;;26.40;96.40;;;;;;5073681;28;19916;-76
2022/06/29 08:36:13;;;;;;;5.18;0.90;;;26.30;97.20;;;;;;5091890;28;20059;-78
2022/06/29 08:38:39;;;;;;;3.63;1.45;;;26.20;96.40;;;;;;5091550;28;20491;-76
2022/06/29 08:41:05;;;;;;;3.80;1.10;;;26.00;96.00;;;;;;5073482;28;20048;-79
2022/06/29 08:43:32;;;;;;;3.00;1.10;;;26.00;96.40;;;;;;5091533;28;20047;-79
2022/06/29 08:45:58;;;;;;;2.90;1.08;;;25.90;96.30;;;;;;5091134;28;20036;-77
2022/06/29 08:48:24;;;;;;;2.55;1.15;;;25.80;95.50;;;;;;5091747;28;20063;-82
2022/06/29 08:50:53;;;;;;;4.82;1.55;;;25.70;96.30;;;;;;5091372;28;20044;-79
2022/06/29 08:53:19;;;;;;;3.83;1.10;;;25.70;96.30;;;;;;5091420;28;20043;-78
2022/06/29 08:55:50;;;;;;;3.83;1.08;;;25.70;96.60;;;;;;5091283;28;20032;-79
2022/06/29 08:58:24;;;;;;;3.35;1.10;;;25.80;96.60;;;;;;5091147;28;20181;-81
2022/06/29 09:00:50;;;;;;;4.28;1.40;;;25.80;96.40;;;;;;5090833;28;20503;-77
2022/06/29 09:03:18;;;;;;;3.55;1.10;;;25.80;96.70;;;;;;5091431;28;20040;-80
2022/06/29 09:05:51;;;;;;;7.20;1.23;;;26.10;96.80;;;;;;5091325;28;20040;-81
2022/06/29 09:08:18;;;;;;;2.00;0.93;;;26.20;96.70;;;;;;5091325;28;20118;-79
2022/06/29 09:10:44;;;;;;;4.90;1.15;;;26.40;97.00;;;;;;5091153;28;20390;-78
2022/06/29 09:13:11;;;;;;;7.90;1.30;;;26.60;96.80;;;;;;5090956;28;20059;-79
2022/06/29 09:15:40;;;;;;;3.17;1.17;;;26.70;96.40;;;;;;5089332;28;20044;-78
2022/06/29 09:18:42;;;;;;;3.28;0.82;;;26.80;96.40;;;;;;5091081;28;20048;-79
2022/06/29 09:21:07;;;;;;;5.85;1.10;;;26.90;96.20;;;;;;5008599;28;20081;-78
2022/06/29 09:23:35;;;;;;;5.45;1.30;;;27.10;95.40;;;;;;5008131;28;20434;-77
2022/06/29 09:26:01;;;;;;;3.42;1.23;;;27.30;96.00;;;;;;5008390;28;20042;-77
2022/06/29 09:28:28;;;;;;;3.25;1.20;;;27.30;95.00;;;;;;5008642;28;20068;-78
2022/06/29 09:31:00;;;;;;;3.60;1.15;;;27.60;95.20;;;;;;5008301;28;20049;-78
2022/06/29 09:33:28;;;;;;;2.38;1.15;;;27.90;95.20;;;;;;5008724;28;20050;-77
2022/06/29 09:36:04;;;;;;;3.08;1.10;;;27.80;94.30;;;;;;5008813;28;20060;-77
2022/06/29 09:38:30;;;;;;;2.67;1.20;;;27.90;93.70;;;;;;5008490;28;20494;-79
2022/06/29 09:41:01;;;;;;;2.92;1.20;;;27.90;93.70;;;;;;5008473;28;20053;-78
2022/06/29 09:43:29;;;;;;;3.97;1.20;;;27.80;92.90;;;;;;5008568;28;20073;-78
2022/06/29 09:45:55;;;;;;;2.75;1.00;;;27.90;93.20;;;;;;5008169;28;20072;-81
2022/06/29 09:48:24;;;;;;;2.25;1.10;;;28.00;92.30;;;;;;5008245;28;20623;-79
2022/06/29 09:50:59;;;;;;;3.05;1.10;;;28.10;93.20;;;;;;5008365;28;20049;-78
2022/06/29 09:53:30;;;;;;;6.07;1.20;;;28.30;93.70;;;;;;5008266;28;20486;-80
2022/06/29 09:56:00;;;;;;;2.97;1.23;;;28.20;92.70;;;;;;5077662;28;20151;-77
2022/06/29 09:58:44;;;;;;;3.55;1.30;;;28.30;93.50;;;;;;5072541;28;20147;-79
2022/06/29 10:03:59;;;;;;;3.10;1.23;;;28.30;92.00;;;;;;5090758;28;20059;-81
2022/06/29 10:06:25;;;;;;;9.73;1.33;;;28.30;92.20;;;;;;5090705;28;20449;-78
2022/06/29 10:08:51;;;;;;;2.22;1.00;;;28.50;92.30;;;;;;5090506;28;20052;-78
2022/06/29 10:14:57;;;;;;;6.78;1.30;;;28.60;91.50;;;;;;5072711;28;20154;-77
2022/06/29 10:17:53;;;;;;;1.80;0.98;;;28.70;91.80;;;;;;5090426;28;20051;-81
2022/06/29 10:20:18;;;;;;;6.10;1.30;;;28.80;91.50;;;;;;5090337;28;20051;-79
2022/06/29 10:22:48;;;;;;;3.05;1.13;;;28.80;91.10;;;;;;5090187;28;20044;-80
2022/06/29 10:25:28;;;;;;;5.85;1.17;;;28.80;91.00;;;;;;5090596;28;20059;-80
2022/06/29 10:28:19;;;;;;;3.83;1.13;;;28.80;90.40;;;;;;5072049;28;20044;-79
2022/06/29 10:30:45;;;;;;;1.73;0.82;;;28.90;90.40;;;;;;5090192;28;20044;-80
2022/06/29 10:33:31;;;;;;;3.10;1.35;;;29.10;89.60;;;;;;5089920;28;20048;-79
2022/06/29 10:36:02;;;;;;;4.40;1.35;;;29.10;87.70;;;;;;5094079;28;20127;-80
2022/06/29 10:38:28;;;;;;;2.45;1.30;;;29.30;88.70;;;;;;5093862;28;20495;-80
2022/06/29 10:43:07;;;;;;;3.53;1.60;;;29.40;87.30;;;;;;5094496;28;20050;-81
2022/06/29 10:43:56;;;;;;;5.63;1.23;;;29.40;87.20;;;;;;5094244;28;20684;-79
2022/06/29 10:46:22;;;;;;;2.13;0.90;;;29.20;85.20;;;;;;5094137;28;20040;-78
2022/06/29 10:49:18;;;;;;;5.32;1.10;;;29.00;83.60;;;;;;5075811;28;20052;-78
2022/06/29 10:51:47;;;;;;;2.90;1.20;;;29.00;83.60;;;;;;5075793;28;20058;-80
2022/06/29 10:54:26;;;;;;;4.07;1.00;;;28.90;84.70;;;;;;5093848;28;20129;-78
2022/06/29 10:56:58;;;;;;;6.15;1.27;;;28.90;83.50;;;;;;5093771;28;20055;-78
2022/06/29 10:59:38;;;;;;;3.45;1.05;;;28.90;82.40;;;;;;5093707;28;20056;-76
2022/06/29 11:02:13;;;;;;;1.38;1.08;;;29.20;83.50;;;;;;5093689;28;20040;-77
2022/06/29 11:04:40;;;;;;;1.85;1.08;;;29.30;81.30;;;;;;5093095;28;20036;-81
2022/06/29 11:12:49;;;;;;;3.35;1.00;;;29.50;81.10;;;;;;5093358;28;20105;-77
2022/06/29 11:15:42;;;;;;;3.17;1.08;;;29.60;79.40;;;;;;5093316;28;20051;-83
2022/06/29 11:18:21;;;;;;;2.33;0.93;;;29.60;77.80;;;;;;5093205;28;20127;-80
2022/06/29 11:20:49;;;;;;;2.40;1.00;;;29.60;78.50;;;;;;5092984;28;20056;-78
2022/06/29 11:23:20;;;;;;;2.30;1.13;;;29.80;80.10;;;;;;5093360;28;20119;-80
2022/06/29 11:25:49;;;;;;;3.58;1.20;;;29.70;78.90;;;;;;5093018;28;20052;-81
2022/06/29 11:28:19;;;;;;;1.77;1.08;;;29.80;78.40;;;;;;5093579;28;20044;-79
2022/06/29 11:31:05;;;;;;;2.05;1.00;;;29.90;78.70;;;;;;5093393;28;20101;-79
2022/06/29 11:33:33;;;;;;;3.35;1.20;;;29.90;78.70;;;;;;5092851;28;20051;-80
2022/06/29 11:36:15;;;;;;;2.22;0.75;;;30.10;79.30;;;;;;5092705;28;20136;-76
2022/06/29 11:38:43;;;;;;;2.95;1.10;;;30.10;78.20;;;;;;5092816;28;20075;-78
2022/06/29 11:41:14;;;;;;;2.53;0.82;;;30.20;78.20;;;;;;5093016;28;20052;-77
2022/06/29 11:43:40;;;;;;;2.33;1.00;;;30.20;77.70;;;;;;5093096;28;20051;-80
2022/06/29 11:46:17;;;;;;;4.63;1.00;;;30.30;76.90;;;;;;5092073;28;20048;-79
2022/06/29 11:51:47;;;;;;;2.83;1.20;;;30.00;74.80;;;;;;5092602;28;20048;-78
2022/06/29 11:54:13;;;;;;;5.25;0.80;;;30.10;75.30;;;;;;5092880;28;20089;-79
2022/06/29 11:56:42;;;;;;;1.67;0.90;;;30.20;76.20;;;;;;5092750;28;20466;-78
2022/06/29 11:59:07;;;;;;;2.55;0.85;;;30.20;75.60;;;;;;5074527;28;20056;-78
2022/06/29 12:01:33;;;;;;;2.50;1.05;;;30.30;75.00;;;;;;5092383;28;20055;-77
2022/06/29 12:04:03;;;;;;;1.63;0.73;;;30.40;74.80;;;;;;5074327;28;20044;-78
2022/06/29 12:06:36;;;;;;;5.15;1.00;;;30.50;73.00;;;;;;5057214;28;20114;-77
2022/06/29 12:09:02;;;;;;;5.38;1.00;;;30.40;72.80;;;;;;5074714;28;20052;-75
2022/06/29 12:11:28;;;;;;;2.53;0.70;;;30.50;72.80;;;;;;5092309;28;20044;-77
2022/06/29 12:13:54;;;;;;;2.10;0.90;;;30.40;72.50;;;;;;5074136;28;20052;-77
2022/06/29 12:16:20;;;;;;;2.83;1.00;;;30.40;70.90;;;;;;5057053;28;20491;-77
2022/06/29 12:18:46;;;;;;;4.93;1.10;;;30.40;72.00;;;;;;5092369;28;20048;-75
2022/06/29 12:21:12;;;;;;;3.72;1.02;;;30.40;71.20;;;;;;5092109;28;20407;-77
2022/06/29 12:23:38;;;;;;;3.05;0.80;;;30.50;71.80;;;;;;5092255;28;20048;-78
2022/06/29 12:26:03;;;;;;;1.98;0.93;;;30.60;71.50;;;;;;5091999;28;20411;-77
2022/06/29 12:28:29;;;;;;;5.13;1.20;;;30.60;71.70;;;;;;5091850;28;20048;-77
2022/06/29 12:30:55;;;;;;;5.78;1.05;;;30.60;71.90;;;;;;5091718;28;20048;-77
2022/06/29 12:33:21;;;;;;;3.63;1.20;;;30.60;71.70;;;;;;5092118;28;20051;-78
2022/06/29 12:35:48;;;;;;;1.92;1.23;;;30.60;73.10;;;;;;5092009;28;20063;-76
2022/06/29 12:38:14;;;;;;;1.90;1.13;;;30.70;73.30;;;;;;5091422;28;20063;-77
2022/06/29 12:40:40;;;;;;;5.25;1.30;;;30.60;73.60;;;;;;5091755;28;20048;-78
2022/06/29 12:43:06;;;;;;;2.90;1.70;;;30.60;73.30;;;;;;5073336;28;20044;-77
2022/06/29 12:45:32;;;;;;;2.20;1.27;;;30.70;73.10;;;;;;5091635;28;20117;-79
2022/06/29 12:47:58;;;;;;;2.75;1.30;;;30.80;74.50;;;;;;5091909;28;20036;-76
2022/06/29 12:50:24;;;;;;;5.38;1.33;;;31.00;74.80;;;;;;5091590;28;20044;-76
2022/06/29 12:52:51;;;;;;;2.67;1.10;;;31.00;74.10;;;;;;5091411;28;20036;-77
2022/06/29 12:55:19;;;;;;;2.22;1.17;;;30.90;73.90;;;;;;5091667;28;20052;-75
2022/06/29 12:57:46;;;;;;;5.25;1.40;;;30.90;74.00;;;;;;5090485;28;20118;-78
2022/06/29 13:00:13;;;;;;;4.93;1.30;;;31.00;73.30;;;;;;5091156;28;20423;-77
2022/06/29 13:02:40;;;;;;;4.53;1.50;;;31.10;75.90;;;;;;5073207;28;20079;-79
2022/06/29 13:05:09;;;;;;;5.13;1.30;;;31.10;75.10;;;;;;5090958;28;20043;-77
2022/06/29 13:07:37;;;;;;;4.20;1.33;;;31.00;75.60;;;;;;5091053;28;20055;-76
2022/06/29 13:10:05;;;;;;;2.60;1.58;;;31.00;74.80;;;;;;5091327;28;20055;-78
2022/06/29 13:12:30;;;;;;;2.53;1.92;;;30.70;74.40;;;;;;5091467;28;20097;-78